createdAt,value
2018-12-18T00:04:46.886Z,101552.37
2018-12-18T00:09:49.558Z,101547.09
2018-12-18T00:14:52.026Z,101556.33
2018-12-18T00:19:54.588Z,101545.36
2018-12-18T00:24:57.040Z,101541.87
2018-12-18T00:29:59.438Z,101540.12
2018-12-18T00:35:01.856Z,101538.85
2018-12-18T00:40:05.181Z,101533.17
2018-12-18T00:45:07.726Z,101534.52
2018-12-18T00:50:10.745Z,101521.89
2018-12-18T00:55:13.090Z,101527.69
2018-12-18T01:00:15.526Z,101521.14
2018-12-18T01:05:18.018Z,101516.30
2018-12-18T01:10:20.415Z,101525.98
2018-12-18T01:15:22.840Z,101522.93
2018-12-18T01:20:25.349Z,101525.16
2018-12-18T01:25:28.451Z,101522.11
2018-12-18T01:30:30.825Z,101514.67
2018-12-18T01:35:33.170Z,101518.20
2018-12-18T01:40:35.511Z,101516.00
2018-12-18T01:45:38.022Z,101515.50
2018-12-18T01:50:40.429Z,101512.42
2018-12-18T01:55:42.786Z,101515.02
2018-12-18T02:00:45.159Z,101510.59
2018-12-18T02:05:47.714Z,101514.49
2018-12-18T02:10:50.394Z,101516.66
2018-12-18T02:15:52.854Z,101515.75
2018-12-18T02:20:55.315Z,101517.90
2018-12-18T02:25:58.154Z,101513.06
2018-12-18T02:31:00.640Z,101507.67
2018-12-18T02:36:03.106Z,101504.58
2018-12-18T02:41:05.549Z,101502.36
2018-12-18T02:46:07.990Z,101502.38
2018-12-18T02:51:10.535Z,101500.11
2018-12-18T02:56:12.987Z,101501.87
2018-12-18T03:01:15.466Z,101486.11
2018-12-18T03:06:17.862Z,101480.77
2018-12-18T03:11:20.585Z,101487.77
2018-12-18T03:16:22.926Z,101479.36
2018-12-18T03:21:25.355Z,101480.63
2018-12-18T03:26:27.764Z,101471.30
2018-12-18T03:31:30.524Z,101463.91
2018-12-18T03:36:32.955Z,101470.48
2018-12-18T03:41:36.047Z,101467.07
2018-12-18T03:46:38.660Z,101456.89
2018-12-18T03:51:41.146Z,101468.84
2018-12-18T03:56:43.497Z,101468.78
2018-12-18T04:01:45.893Z,101475.05
2018-12-18T04:06:48.302Z,101476.80
2018-12-18T04:11:56.230Z,101467.70
2018-12-18T04:16:58.596Z,101461.22
2018-12-18T04:22:01.082Z,101462.11
2018-12-18T04:27:03.537Z,101468.73
2018-12-18T04:32:05.990Z,101471.89
2018-12-18T04:37:08.554Z,101458.35
2018-12-18T04:42:11.119Z,101467.65
2018-12-18T04:47:13.742Z,101476.00
2018-12-18T04:52:16.247Z,101475.47
2018-12-18T04:57:18.716Z,101483.75
2018-12-18T05:02:21.244Z,101489.46
2018-12-18T05:07:23.574Z,101485.87
2018-12-18T05:12:26.323Z,101477.54
2018-12-18T05:17:28.863Z,101472.27
2018-12-18T05:22:31.254Z,101462.14
2018-12-18T05:27:34.857Z,101455.53
2018-12-18T05:32:37.309Z,101466.02
2018-12-18T05:37:40.138Z,101466.92
2018-12-18T05:42:42.439Z,101475.58
2018-12-18T05:47:44.975Z,101472.51
2018-12-18T05:52:47.552Z,101467.19
2018-12-18T05:57:50.926Z,101472.12
2018-12-18T06:02:53.387Z,101472.12
2018-12-18T06:07:55.754Z,101480.47
2018-12-18T06:12:58.228Z,101473.00
2018-12-18T06:18:00.890Z,101468.20
2018-12-18T06:23:03.378Z,101475.61
2018-12-18T06:28:05.850Z,101474.31
2018-12-18T06:33:08.278Z,101478.69
2018-12-18T06:38:10.753Z,101484.03
2018-12-18T06:43:13.170Z,101484.43
2018-12-18T06:48:15.790Z,101469.93
2018-12-18T06:53:18.181Z,101473.91
2018-12-18T06:58:20.555Z,101483.63
2018-12-18T07:03:22.992Z,101484.94
2018-12-18T07:08:25.352Z,101485.83
2018-12-18T07:13:27.874Z,101477.96
2018-12-18T07:18:30.271Z,101479.30
2018-12-18T07:23:33.780Z,101477.52
2018-12-18T07:28:36.259Z,101483.73
2018-12-18T07:33:38.665Z,101473.59
2018-12-18T07:38:41.058Z,101490.30
2018-12-18T07:43:43.515Z,101495.09
2018-12-18T07:48:45.925Z,101495.93
2018-12-18T07:53:48.614Z,101491.48
2018-12-18T07:58:51.130Z,101496.73
2018-12-18T08:03:53.606Z,101497.09
2018-12-18T08:08:56.119Z,101490.48
2018-12-18T08:13:58.626Z,101499.22
2018-12-18T08:19:01.113Z,101507.06
2018-12-18T08:24:03.793Z,101513.17
2018-12-18T08:29:06.258Z,101515.72
2018-12-18T08:34:08.791Z,101510.41
2018-12-18T08:39:11.230Z,101504.16
2018-12-18T08:44:13.776Z,101494.14
2018-12-18T08:49:16.130Z,101476.07
2018-12-18T08:54:18.916Z,101461.97
2018-12-18T08:59:21.285Z,101444.73
2018-12-18T09:04:23.950Z,101458.30
2018-12-18T09:09:26.431Z,101439.91
2018-12-18T09:14:28.920Z,101443.73
2018-12-18T09:19:32.418Z,101447.73
2018-12-18T09:24:34.879Z,101439.72
2018-12-18T09:29:37.269Z,101442.66
2018-12-18T09:34:39.762Z,101435.48
2018-12-18T09:39:42.975Z,101427.38
2018-12-18T09:44:45.370Z,101419.22
2018-12-18T09:49:47.769Z,101416.65
2018-12-18T09:54:50.163Z,101404.50
2018-12-18T09:59:52.770Z,101395.89
2018-12-18T10:04:55.224Z,101403.74
2018-12-18T10:09:57.672Z,101394.34
2018-12-18T10:15:00.140Z,101392.29
2018-12-18T10:20:02.728Z,101386.79
2018-12-18T10:25:05.147Z,101369.20
2018-12-18T10:30:10.779Z,101354.88
2018-12-18T10:35:13.565Z,101349.32
2018-12-18T10:40:16.287Z,101330.55
2018-12-18T10:45:20.297Z,101333.36
2018-12-18T10:55:31.926Z,101322.09
2018-12-18T11:00:40.029Z,101316.35
2018-12-18T11:05:42.724Z,101298.13
2018-12-18T11:10:45.096Z,101284.67
2018-12-18T11:15:47.709Z,101285.50
2018-12-18T11:20:50.188Z,101282.21
2018-12-18T11:25:52.926Z,101278.16
2018-12-18T11:30:55.403Z,101268.86
2018-12-18T11:35:58.933Z,101261.48
2018-12-18T11:41:01.602Z,101250.70
2018-12-18T11:46:04.050Z,101242.23
2018-12-18T11:51:07.466Z,101222.40
2018-12-18T11:56:10.013Z,101220.66
2018-12-18T12:01:12.610Z,101224.11
2018-12-18T12:06:15.018Z,101199.70
2018-12-18T12:11:17.538Z,101194.16
2018-12-18T12:16:20.117Z,101185.71
2018-12-18T12:21:22.834Z,101181.44
2018-12-18T12:26:31.005Z,101175.44
2018-12-18T12:31:33.526Z,101171.16
2018-12-18T12:36:35.970Z,101169.80
2018-12-18T12:41:43.438Z,101163.27
2018-12-18T12:46:45.881Z,101144.30
2018-12-18T12:51:48.259Z,101141.48
2018-12-18T12:56:51.056Z,101133.01
2018-12-18T13:01:53.593Z,101127.69
2018-12-18T13:06:56.513Z,101120.11
2018-12-18T13:11:58.945Z,101119.08
2018-12-18T13:17:01.350Z,101109.98
2018-12-18T13:22:03.865Z,101098.44
2018-12-18T13:27:06.309Z,101092.45
2018-12-18T13:32:08.913Z,101082.03
2018-12-18T13:37:11.248Z,101074.88
2018-12-18T13:42:14.221Z,101077.31
2018-12-18T13:47:16.552Z,101059.77
2018-12-18T13:52:20.867Z,101059.42
2018-12-18T13:57:23.228Z,101047.97
2018-12-18T14:02:27.027Z,101040.16
2018-12-18T14:07:29.364Z,101028.61
2018-12-18T14:12:35.310Z,101023.42
2018-12-18T14:17:39.445Z,101012.75
2018-12-18T14:22:41.967Z,101023.72
2018-12-18T14:27:44.862Z,101013.78
2018-12-18T14:32:47.422Z,101006.05
2018-12-18T14:37:51.511Z,100994.31
2018-12-18T14:42:55.561Z,100981.78
2018-12-18T14:48:04.246Z,100976.09
2018-12-18T14:53:12.105Z,100966.31
2018-12-18T14:58:19.053Z,100956.53
2018-12-18T15:04:19.652Z,100945.61
2018-12-18T15:09:35.604Z,100944.77
2018-12-18T15:14:55.115Z,100952.81
2018-12-18T15:20:20.775Z,100952.92
2018-12-18T17:16:44.179Z,100886.77
2018-12-18T17:21:47.827Z,100876.02
2018-12-18T17:26:51.184Z,100881.38
2018-12-18T17:31:54.933Z,100886.28
2018-12-18T17:37:14.217Z,100889.66
2018-12-18T17:43:14.491Z,100891.52
2018-12-18T17:48:31.890Z,100900.32
2018-12-18T17:59:16.438Z,100883.32
2018-12-18T18:04:34.633Z,100887.73
2018-12-18T18:09:46.207Z,100898.27
2018-12-18T18:15:23.778Z,100891.68
2018-12-18T18:20:39.594Z,100891.84
2018-12-18T18:25:52.078Z,100886.66
2018-12-18T18:31:01.998Z,100872.25
2018-12-18T18:41:46.667Z,100847.68
2018-12-18T18:47:02.292Z,100848.45
2018-12-18T18:52:14.411Z,100819.03
2018-12-18T18:57:19.629Z,100811.13
2018-12-18T19:02:22.499Z,100791.63
2018-12-18T19:07:24.862Z,100781.42
2018-12-18T19:12:27.242Z,100783.77
2018-12-18T19:17:29.566Z,100772.63
2018-12-18T19:22:31.961Z,100762.06
2018-12-18T19:27:34.339Z,100756.59
2018-12-18T19:32:36.677Z,100752.19
2018-12-18T19:37:39.022Z,100747.92
2018-12-18T19:42:41.423Z,100734.72
2018-12-18T19:47:43.850Z,100732.91
2018-12-18T19:52:46.238Z,100739.41
2018-12-18T19:57:48.621Z,100726.69
2018-12-18T20:02:51.243Z,100734.46
2018-12-18T20:07:54.785Z,100747.83
2018-12-18T20:12:59.406Z,100766.26
2018-12-18T20:18:02.371Z,100774.73
2018-12-18T20:23:04.821Z,100781.51
2018-12-18T20:28:07.780Z,100770.48
2018-12-18T20:33:10.187Z,100760.13
2018-12-18T20:38:16.793Z,100755.84
2018-12-18T20:43:18.103Z,100746.78
2018-12-18T20:48:21.549Z,100730.22
2018-12-18T20:53:24.037Z,100715.34
2018-12-18T20:58:27.083Z,100727.25
2018-12-18T21:03:31.993Z,100726.80
2018-12-18T21:08:34.379Z,100714.06
2018-12-18T21:13:36.754Z,100716.88
2018-12-18T21:18:40.095Z,100712.56
2018-12-18T21:23:42.646Z,100712.07
2018-12-18T21:28:44.968Z,100697.08
2018-12-18T21:33:47.793Z,100694.19
2018-12-18T21:38:50.048Z,100696.03
2018-12-18T21:43:53.224Z,100691.64
2018-12-18T21:48:55.555Z,100692.09
2018-12-18T21:53:58.170Z,100683.82
2018-12-18T21:59:00.787Z,100664.03
2018-12-18T22:04:03.724Z,100660.27
2018-12-18T22:09:07.143Z,100640.67
2018-12-18T22:14:10.576Z,100638.42
2018-12-18T22:19:12.959Z,100629.52
2018-12-18T22:24:15.883Z,100611.56
2018-12-18T22:29:18.235Z,100616.86
2018-12-18T22:34:21.063Z,100608.97
2018-12-18T22:39:23.408Z,100607.20
2018-12-18T22:44:27.130Z,100611.19
2018-12-18T22:49:29.515Z,100614.64
2018-12-18T22:54:31.852Z,100601.91
2018-12-18T22:59:34.261Z,100599.36
2018-12-18T23:04:36.835Z,100589.78
2018-12-18T23:09:39.202Z,100582.77
2018-12-18T23:14:42.567Z,100576.27
2018-12-18T23:19:45.023Z,100569.25
2018-12-18T23:24:47.958Z,100566.50
2018-12-18T23:29:50.339Z,100561.16
2018-12-18T23:34:52.828Z,100549.00
2018-12-18T23:39:55.772Z,100554.14
2018-12-18T23:44:58.141Z,100566.88
2018-12-18T23:50:01.855Z,100575.62
2018-12-18T23:55:04.471Z,100556.72
